Ocosta, Washington
Current Conditions -  °F | °C
As of 3:08 PM on Thursday 18 Dec 2014 (Local Time) from KHQM Reporting Station
Light Rain Light Rain  
Wind Chill: 44°   Ceiling: 2200
Heat Index: 49°   Visibility: 1.7mi
Dew Point: 48°   Wind: 13mph
Humidity: 97%   Direction: 70°ENE
Pressure: 29.73"   Gusts: NA
Location:  47.1445°N, 123.771°W
Report Text: KHQM 182308Z AUTO 07011KT 1 3/4SM -RA BR SCT014 BKN022 OVC047 09/09 A2973 RMK AO2 P0000 T00940089
Loading
Personal Weather Stations






























Interactive Weather Map New forecast layout! Learn more

10-Day Weather Forecast

Advertisements
Track Severe Weather on mobile